sensor_id;sensor_type;location;lat;lon;timestamp;temperature;humidity
6556;DHT22;3311;48.32423000;14.29074500;2024-03-08T00:00:44;10.80;63.80
6556;DHT22;3311;48.32423000;14.29074500;2024-03-08T00:03:11;10.80;63.60
6556;DHT22;3311;48.32423000;14.29074500;2024-03-08T00:05:38;10.80;63.70
6556;DHT22;3311;48.32423000;14.29074500;2024-03-08T00:08:07;10.80;63.50
6556;DHT22;3311;48.32423000;14.29074500;2024-03-08T00:10:35;10.80;63.80
6556;DHT22;3311;48.32423000;14.29074500;2024-03-08T00:13:04;10.80;63.80
6556;DHT22;3311;48.32423000;14.29074500;2024-03-08T00:15:32;10.70;64.00
6556;DHT22;3311;48.32423000;14.29074500;2024-03-08T00:18:02;10.80;63.70
6556;DHT22;3311;48.32423000;14.29074500;2024-03-08T00:20:29;10.80;63.40
6556;DHT22;3311;48.32423000;14.29074500;2024-03-08T00:22:57;10.80;63.70
6556;DHT22;3311;48.32423000;14.29074500;2024-03-08T00:25:25;10.70;63.50
6556;DHT22;3311;48.32423000;14.29074500;2024-03-08T00:27:52;10.70;63.60
6556;DHT22;3311;48.32423000;14.29074500;2024-03-08T00:30:22;10.70;63.40
6556;DHT22;3311;48.32423000;14.29074500;2024-03-08T00:32:51;10.70;63.60
6556;DHT22;3311;48.32423000;14.29074500;2024-03-08T00:35:19;10.70;63.50
6556;DHT22;3311;48.32423000;14.29074500;2024-03-08T00:37:47;10.70;63.40
6556;DHT22;3311;48.32423000;14.29074500;2024-03-08T00:40:14;10.60;63.20
6556;DHT22;3311;48.32423000;14.29074500;2024-03-08T00:42:41;10.60;63.40
6556;DHT22;3311;48.32423000;14.29074500;2024-03-08T00:45:10;10.50;63.60
6556;DHT22;3311;48.32423000;14.29074500;2024-03-08T00:47:37;10.60;63.70
6556;DHT22;3311;48.32423000;14.29074500;2024-03-08T00:50:06;10.60;63.50
6556;DHT22;3311;48.32423000;14.29074500;2024-03-08T00:52:35;10.50;63.30
6556;DHT22;3311;48.32423000;14.29074500;2024-03-08T00:55:03;10.50;63.30
6556;DHT22;3311;48.32423000;14.29074500;2024-03-08T00:57:31;10.60;63.40
6556;DHT22;3311;48.32423000;14.29074500;2024-03-08T00:59:59;10.60;63.30
6556;DHT22;3311;48.32423000;14.29074500;2024-03-08T01:02:27;10.60;63.00
6556;DHT22;3311;48.32423000;14.29074500;2024-03-08T01:04:55;10.50;63.00
6556;DHT22;3311;48.32423000;14.29074500;2024-03-08T01:07:22;10.50;63.10
6556;DHT22;3311;48.32423000;14.29074500;2024-03-08T01:09:52;10.60;63.20
6556;DHT22;3311;48.32423000;14.29074500;2024-03-08T01:12:19;10.60;62.90
6556;DHT22;3311;48.32423000;14.29074500;2024-03-08T01:14:47;10.50;62.90
6556;DHT22;3311;48.32423000;14.29074500;2024-03-08T01:17:15;10.40;62.90
6556;DHT22;3311;48.32423000;14.29074500;2024-03-08T01:19:43;10.40;63.00
6556;DHT22;3311;48.32423000;14.29074500;2024-03-08T01:22:11;10.40;62.90
6556;DHT22;3311;48.32423000;14.29074500;2024-03-08T01:24:39;10.40;63.00
6556;DHT22;3311;48.32423000;14.29074500;2024-03-08T01:27:07;10.40;62.60
6556;DHT22;3311;48.32423000;14.29074500;2024-03-08T01:29:35;10.50;62.80
6556;DHT22;3311;48.32423000;14.29074500;2024-03-08T01:32:02;10.40;62.40
6556;DHT22;3311;48.32423000;14.29074500;2024-03-08T01:34:30;10.40;62.40
6556;DHT22;3311;48.32423000;14.29074500;2024-03-08T01:36:59;10.30;62.60
6556;DHT22;3311;48.32423000;14.29074500;2024-03-08T01:39:27;10.20;62.70
6556;DHT22;3311;48.32423000;14.29074500;2024-03-08T01:41:54;10.20;62.80
6556;DHT22;3311;48.32423000;14.29074500;2024-03-08T01:44:22;10.20;62.80
6556;DHT22;3311;48.32423000;14.29074500;2024-03-08T01:46:51;10.20;62.90
6556;DHT22;3311;48.32423000;14.29074500;2024-03-08T01:49:21;10.20;62.90
6556;DHT22;3311;48.32423000;14.29074500;2024-03-08T01:51:50;10.20;62.90
6556;DHT22;3311;48.32423000;14.29074500;2024-03-08T01:54:19;10.20;63.10
6556;DHT22;3311;48.32423000;14.29074500;2024-03-08T01:56:47;10.20;63.00
6556;DHT22;3311;48.32423000;14.29074500;2024-03-08T01:59:16;10.30;63.00
6556;DHT22;3311;48.32423000;14.29074500;2024-03-08T02:01:45;10.20;63.10
6556;DHT22;3311;48.32423000;14.29074500;2024-03-08T02:04:14;10.20;63.00
6556;DHT22;3311;48.32423000;14.29074500;2024-03-08T02:06:42;10.30;63.20
6556;DHT22;3311;48.32423000;14.29074500;2024-03-08T02:09:10;10.30;63.20
6556;DHT22;3311;48.32423000;14.29074500;2024-03-08T02:11:38;10.20;63.10
6556;DHT22;3311;48.32423000;14.29074500;2024-03-08T02:14:07;10.20;63.10
6556;DHT22;3311;48.32423000;14.29074500;2024-03-08T02:16:35;10.20;63.20
6556;DHT22;3311;48.32423000;14.29074500;2024-03-08T02:19:05;10.20;63.10
6556;DHT22;3311;48.32423000;14.29074500;2024-03-08T02:21:37;10.20;63.10
6556;DHT22;3311;48.32423000;14.29074500;2024-03-08T02:24:05;10.20;62.90
6556;DHT22;3311;48.32423000;14.29074500;2024-03-08T02:26:33;10.20;62.70
6556;DHT22;3311;48.32423000;14.29074500;2024-03-08T02:29:00;10.20;62.90
6556;DHT22;3311;48.32423000;14.29074500;2024-03-08T02:31:28;10.10;62.80
6556;DHT22;3311;48.32423000;14.29074500;2024-03-08T02:33:55;10.10;63.00
6556;DHT22;3311;48.32423000;14.29074500;2024-03-08T02:36:22;10.10;62.80
6556;DHT22;3311;48.32423000;14.29074500;2024-03-08T02:38:51;10.00;62.80
6556;DHT22;3311;48.32423000;14.29074500;2024-03-08T02:41:18;10.00;62.90
6556;DHT22;3311;48.32423000;14.29074500;2024-03-08T02:43:45;10.00;62.80
6556;DHT22;3311;48.32423000;14.29074500;2024-03-08T02:46:13;10.00;62.80
6556;DHT22;3311;48.32423000;14.29074500;2024-03-08T02:48:41;10.00;62.60
6556;DHT22;3311;48.32423000;14.29074500;2024-03-08T02:51:08;10.00;62.50
6556;DHT22;3311;48.32423000;14.29074500;2024-03-08T02:53:36;10.00;62.70
6556;DHT22;3311;48.32423000;14.29074500;2024-03-08T02:56:05;10.00;62.50
6556;DHT22;3311;48.32423000;14.29074500;2024-03-08T02:58:34;10.00;62.30
6556;DHT22;3311;48.32423000;14.29074500;2024-03-08T03:01:03;10.10;62.40
6556;DHT22;3311;48.32423000;14.29074500;2024-03-08T03:03:30;10.10;62.10
6556;DHT22;3311;48.32423000;14.29074500;2024-03-08T03:05:58;10.00;62.40
6556;DHT22;3311;48.32423000;14.29074500;2024-03-08T03:08:26;10.00;62.20
6556;DHT22;3311;48.32423000;14.29074500;2024-03-08T03:10:54;9.90;63.40
6556;DHT22;3311;48.32423000;14.29074500;2024-03-08T03:13:24;10.00;62.20
6556;DHT22;3311;48.32423000;14.29074500;2024-03-08T03:15:51;9.90;63.00
6556;DHT22;3311;48.32423000;14.29074500;2024-03-08T03:18:18;10.00;61.70
6556;DHT22;3311;48.32423000;14.29074500;2024-03-08T03:20:49;10.00;61.40
6556;DHT22;3311;48.32423000;14.29074500;2024-03-08T03:23:16;9.90;62.20
6556;DHT22;3311;48.32423000;14.29074500;2024-03-08T03:25:46;9.80;62.20
6556;DHT22;3311;48.32423000;14.29074500;2024-03-08T03:28:13;9.90;61.80
6556;DHT22;3311;48.32423000;14.29074500;2024-03-08T03:30:46;9.80;61.80
6556;DHT22;3311;48.32423000;14.29074500;2024-03-08T03:33:13;9.80;61.70
6556;DHT22;3311;48.32423000;14.29074500;2024-03-08T03:35:42;9.80;61.70
6556;DHT22;3311;48.32423000;14.29074500;2024-03-08T03:38:10;9.80;61.90
6556;DHT22;3311;48.32423000;14.29074500;2024-03-08T03:40:38;9.80;61.90
6556;DHT22;3311;48.32423000;14.29074500;2024-03-08T03:43:06;9.90;61.40
6556;DHT22;3311;48.32423000;14.29074500;2024-03-08T03:45:33;9.80;61.30
6556;DHT22;3311;48.32423000;14.29074500;2024-03-08T03:48:04;9.80;61.50
6556;DHT22;3311;48.32423000;14.29074500;2024-03-08T03:50:33;9.80;61.20
6556;DHT22;3311;48.32423000;14.29074500;2024-03-08T03:53:00;9.80;61.30
6556;DHT22;3311;48.32423000;14.29074500;2024-03-08T03:55:29;9.80;61.20
6556;DHT22;3311;48.32423000;14.29074500;2024-03-08T03:57:56;9.90;60.80
6556;DHT22;3311;48.32423000;14.29074500;2024-03-08T04:00:24;9.90;60.70
6556;DHT22;3311;48.32423000;14.29074500;2024-03-08T04:02:52;9.90;60.70
6556;DHT22;3311;48.32423000;14.29074500;2024-03-08T04:05:22;9.80;60.30
6556;DHT22;3311;48.32423000;14.29074500;2024-03-08T04:07:49;9.80;60.40
6556;DHT22;3311;48.32423000;14.29074500;2024-03-08T04:10:17;9.80;60.00
6556;DHT22;3311;48.32423000;14.29074500;2024-03-08T04:12:45;9.80;60.10
6556;DHT22;3311;48.32423000;14.29074500;2024-03-08T04:15:13;9.80;59.80
6556;DHT22;3311;48.32423000;14.29074500;2024-03-08T04:17:41;9.80;59.90
6556;DHT22;3311;48.32423000;14.29074500;2024-03-08T04:20:08;9.80;59.90
6556;DHT22;3311;48.32423000;14.29074500;2024-03-08T04:22:38;9.80;59.80
6556;DHT22;3311;48.32423000;14.29074500;2024-03-08T04:25:07;9.80;59.90
6556;DHT22;3311;48.32423000;14.29074500;2024-03-08T04:27:35;9.80;59.70
6556;DHT22;3311;48.32423000;14.29074500;2024-03-08T04:30:03;9.70;59.90
6556;DHT22;3311;48.32423000;14.29074500;2024-03-08T04:32:33;9.70;59.80
6556;DHT22;3311;48.32423000;14.29074500;2024-03-08T04:35:00;9.80;59.80
6556;DHT22;3311;48.32423000;14.29074500;2024-03-08T04:37:29;9.80;59.60
6556;DHT22;3311;48.32423000;14.29074500;2024-03-08T04:39:58;9.80;59.70
6556;DHT22;3311;48.32423000;14.29074500;2024-03-08T04:42:26;9.80;59.50
6556;DHT22;3311;48.32423000;14.29074500;2024-03-08T04:44:54;9.70;59.70
6556;DHT22;3311;48.32423000;14.29074500;2024-03-08T04:47:21;9.70;59.50
6556;DHT22;3311;48.32423000;14.29074500;2024-03-08T04:49:49;9.80;59.60
6556;DHT22;3311;48.32423000;14.29074500;2024-03-08T04:52:16;9.80;59.30
6556;DHT22;3311;48.32423000;14.29074500;2024-03-08T04:54:43;9.90;59.30
6556;DHT22;3311;48.32423000;14.29074500;2024-03-08T04:57:13;9.90;59.30
6556;DHT22;3311;48.32423000;14.29074500;2024-03-08T04:59:40;9.90;59.10
6556;DHT22;3311;48.32423000;14.29074500;2024-03-08T05:02:07;9.90;59.20
6556;DHT22;3311;48.32423000;14.29074500;2024-03-08T05:04:35;9.80;59.20
6556;DHT22;3311;48.32423000;14.29074500;2024-03-08T05:07:02;9.80;59.20
6556;DHT22;3311;48.32423000;14.29074500;2024-03-08T05:09:30;9.80;59.30
6556;DHT22;3311;48.32423000;14.29074500;2024-03-08T05:11:59;9.80;59.50
6556;DHT22;3311;48.32423000;14.29074500;2024-03-08T05:14:29;9.80;59.30
6556;DHT22;3311;48.32423000;14.29074500;2024-03-08T05:16:56;9.80;59.30
6556;DHT22;3311;48.32423000;14.29074500;2024-03-08T05:19:23;9.80;59.40
6556;DHT22;3311;48.32423000;14.29074500;2024-03-08T05:21:51;9.80;59.50
6556;DHT22;3311;48.32423000;14.29074500;2024-03-08T05:24:18;9.70;59.50
6556;DHT22;3311;48.32423000;14.29074500;2024-03-08T05:26:46;9.80;59.60
6556;DHT22;3311;48.32423000;14.29074500;2024-03-08T05:29:14;9.80;59.40
6556;DHT22;3311;48.32423000;14.29074500;2024-03-08T05:31:46;9.70;59.30
6556;DHT22;3311;48.32423000;14.29074500;2024-03-08T05:34:15;9.70;59.30
6556;DHT22;3311;48.32423000;14.29074500;2024-03-08T05:36:43;9.70;59.40
6556;DHT22;3311;48.32423000;14.29074500;2024-03-08T05:39:12;9.70;59.30
6556;DHT22;3311;48.32423000;14.29074500;2024-03-08T05:41:42;9.80;59.40
6556;DHT22;3311;48.32423000;14.29074500;2024-03-08T05:44:11;9.80;59.40
6556;DHT22;3311;48.32423000;14.29074500;2024-03-08T05:46:39;9.80;59.40
6556;DHT22;3311;48.32423000;14.29074500;2024-03-08T05:49:09;9.80;59.60
6556;DHT22;3311;48.32423000;14.29074500;2024-03-08T05:51:39;9.80;59.50
6556;DHT22;3311;48.32423000;14.29074500;2024-03-08T05:54:07;9.70;59.60
6556;DHT22;3311;48.32423000;14.29074500;2024-03-08T05:56:35;9.70;59.60
6556;DHT22;3311;48.32423000;14.29074500;2024-03-08T05:59:03;9.80;59.50
6556;DHT22;3311;48.32423000;14.29074500;2024-03-08T06:01:30;9.70;59.60
6556;DHT22;3311;48.32423000;14.29074500;2024-03-08T06:03:59;9.70;59.50
6556;DHT22;3311;48.32423000;14.29074500;2024-03-08T06:06:28;9.80;59.30
6556;DHT22;3311;48.32423000;14.29074500;2024-03-08T06:08:55;9.90;59.30
6556;DHT22;3311;48.32423000;14.29074500;2024-03-08T06:11:24;9.90;59.00
6556;DHT22;3311;48.32423000;14.29074500;2024-03-08T06:13:54;10.00;58.30
6556;DHT22;3311;48.32423000;14.29074500;2024-03-08T06:16:26;10.00;58.20
6556;DHT22;3311;48.32423000;14.29074500;2024-03-08T06:18:55;10.10;57.80
6556;DHT22;3311;48.32423000;14.29074500;2024-03-08T06:21:23;10.30;57.50
6556;DHT22;3311;48.32423000;14.29074500;2024-03-08T06:23:53;10.70;57.30
6556;DHT22;3311;48.32423000;14.29074500;2024-03-08T06:26:23;10.70;55.80
6556;DHT22;3311;48.32423000;14.29074500;2024-03-08T06:28:51;10.70;56.20
6556;DHT22;3311;48.32423000;14.29074500;2024-03-08T06:31:18;10.90;56.50
6556;DHT22;3311;48.32423000;14.29074500;2024-03-08T06:33:45;11.10;56.20
6556;DHT22;3311;48.32423000;14.29074500;2024-03-08T06:36:16;11.20;55.70
6556;DHT22;3311;48.32423000;14.29074500;2024-03-08T06:38:45;11.30;55.50
6556;DHT22;3311;48.32423000;14.29074500;2024-03-08T06:41:14;11.50;55.30
6556;DHT22;3311;48.32423000;14.29074500;2024-03-08T06:43:42;11.60;55.10
6556;DHT22;3311;48.32423000;14.29074500;2024-03-08T06:46:09;11.70;55.00
6556;DHT22;3311;48.32423000;14.29074500;2024-03-08T06:48:38;11.80;54.50
6556;DHT22;3311;48.32423000;14.29074500;2024-03-08T06:51:06;11.90;54.60
6556;DHT22;3311;48.32423000;14.29074500;2024-03-08T06:53:33;11.90;54.50
6556;DHT22;3311;48.32423000;14.29074500;2024-03-08T06:56:01;12.00;54.20
6556;DHT22;3311;48.32423000;14.29074500;2024-03-08T06:58:30;12.00;54.00
6556;DHT22;3311;48.32423000;14.29074500;2024-03-08T07:00:58;12.10;53.90
6556;DHT22;3311;48.32423000;14.29074500;2024-03-08T07:03:26;12.20;53.90
6556;DHT22;3311;48.32423000;14.29074500;2024-03-08T07:05:55;12.40;54.00
6556;DHT22;3311;48.32423000;14.29074500;2024-03-08T07:08:24;12.40;53.60
6556;DHT22;3311;48.32423000;14.29074500;2024-03-08T07:10:53;12.50;53.60
6556;DHT22;3311;48.32423000;14.29074500;2024-03-08T07:13:20;12.50;53.60
6556;DHT22;3311;48.32423000;14.29074500;2024-03-08T07:15:48;12.60;53.90
6556;DHT22;3311;48.32423000;14.29074500;2024-03-08T07:18:18;12.60;53.50
6556;DHT22;3311;48.32423000;14.29074500;2024-03-08T07:20:45;12.70;53.50
6556;DHT22;3311;48.32423000;14.29074500;2024-03-08T07:23:12;12.70;53.50
6556;DHT22;3311;48.32423000;14.29074500;2024-03-08T07:25:59;12.70;53.20
6556;DHT22;3311;48.32423000;14.29074500;2024-03-08T07:28:27;12.70;53.20
6556;DHT22;3311;48.32423000;14.29074500;2024-03-08T07:30:58;12.80;53.20
6556;DHT22;3311;48.32423000;14.29074500;2024-03-08T07:33:42;12.90;53.10
6556;DHT22;3311;48.32423000;14.29074500;2024-03-08T07:36:10;12.80;53.10
6556;DHT22;3311;48.32423000;14.29074500;2024-03-08T07:38:37;12.90;53.00
6556;DHT22;3311;48.32423000;14.29074500;2024-03-08T07:41:04;13.00;53.00
6556;DHT22;3311;48.32423000;14.29074500;2024-03-08T07:43:32;13.00;52.90
6556;DHT22;3311;48.32423000;14.29074500;2024-03-08T07:46:01;13.00;52.70
6556;DHT22;3311;48.32423000;14.29074500;2024-03-08T07:48:28;13.00;52.90
6556;DHT22;3311;48.32423000;14.29074500;2024-03-08T07:50:56;13.10;52.80
6556;DHT22;3311;48.32423000;14.29074500;2024-03-08T07:53:23;13.10;52.60
6556;DHT22;3311;48.32423000;14.29074500;2024-03-08T07:55:51;13.00;52.80
6556;DHT22;3311;48.32423000;14.29074500;2024-03-08T07:58:18;13.00;52.60
6556;DHT22;3311;48.32423000;14.29074500;2024-03-08T08:00:45;13.00;52.80
6556;DHT22;3311;48.32423000;14.29074500;2024-03-08T08:03:14;13.10;52.90
6556;DHT22;3311;48.32423000;14.29074500;2024-03-08T08:05:43;13.10;52.70
6556;DHT22;3311;48.32423000;14.29074500;2024-03-08T08:08:11;13.10;52.90
6556;DHT22;3311;48.32423000;14.29074500;2024-03-08T08:10:39;13.20;52.70
6556;DHT22;3311;48.32423000;14.29074500;2024-03-08T08:13:08;13.30;52.70
6556;DHT22;3311;48.32423000;14.29074500;2024-03-08T08:15:35;13.30;52.70
6556;DHT22;3311;48.32423000;14.29074500;2024-03-08T08:18:02;13.40;52.80
6556;DHT22;3311;48.32423000;14.29074500;2024-03-08T08:20:33;13.30;52.60
6556;DHT22;3311;48.32423000;14.29074500;2024-03-08T08:23:00;13.40;52.50
6556;DHT22;3311;48.32423000;14.29074500;2024-03-08T08:25:27;13.50;52.60
6556;DHT22;3311;48.32423000;14.29074500;2024-03-08T08:27:55;13.60;52.50
6556;DHT22;3311;48.32423000;14.29074500;2024-03-08T08:30:22;13.70;52.50
6556;DHT22;3311;48.32423000;14.29074500;2024-03-08T08:32:49;13.70;52.50
6556;DHT22;3311;48.32423000;14.29074500;2024-03-08T08:35:16;13.60;52.50
6556;DHT22;3311;48.32423000;14.29074500;2024-03-08T08:37:47;13.60;52.80
6556;DHT22;3311;48.32423000;14.29074500;2024-03-08T08:40:14;13.60;52.80
6556;DHT22;3311;48.32423000;14.29074500;2024-03-08T08:42:44;13.60;52.70
6556;DHT22;3311;48.32423000;14.29074500;2024-03-08T08:45:12;13.50;52.30
6556;DHT22;3311;48.32423000;14.29074500;2024-03-08T08:47:39;13.40;53.00
6556;DHT22;3311;48.32423000;14.29074500;2024-03-08T08:50:09;13.40;53.00
6556;DHT22;3311;48.32423000;14.29074500;2024-03-08T08:52:37;13.50;53.20
6556;DHT22;3311;48.32423000;14.29074500;2024-03-08T08:55:07;13.40;52.90
6556;DHT22;3311;48.32423000;14.29074500;2024-03-08T08:57:34;13.40;53.00
6556;DHT22;3311;48.32423000;14.29074500;2024-03-08T09:00:02;13.50;53.40
6556;DHT22;3311;48.32423000;14.29074500;2024-03-08T09:02:33;13.40;53.30
6556;DHT22;3311;48.32423000;14.29074500;2024-03-08T09:05:00;13.40;53.20
6556;DHT22;3311;48.32423000;14.29074500;2024-03-08T09:07:28;13.50;53.10
6556;DHT22;3311;48.32423000;14.29074500;2024-03-08T09:09:55;13.50;53.10
6556;DHT22;3311;48.32423000;14.29074500;2024-03-08T09:12:25;13.50;53.00
6556;DHT22;3311;48.32423000;14.29074500;2024-03-08T09:14:52;13.50;52.90
6556;DHT22;3311;48.32423000;14.29074500;2024-03-08T09:17:20;13.50;52.20
6556;DHT22;3311;48.32423000;14.29074500;2024-03-08T09:19:47;13.40;51.90
6556;DHT22;3311;48.32423000;14.29074500;2024-03-08T09:22:15;13.30;52.20
6556;DHT22;3311;48.32423000;14.29074500;2024-03-08T09:24:44;13.30;51.90
6556;DHT22;3311;48.32423000;14.29074500;2024-03-08T09:27:11;13.30;52.00
6556;DHT22;3311;48.32423000;14.29074500;2024-03-08T09:29:41;13.30;52.10
6556;DHT22;3311;48.32423000;14.29074500;2024-03-08T09:32:09;13.30;52.00
6556;DHT22;3311;48.32423000;14.29074500;2024-03-08T09:34:37;13.30;51.60
6556;DHT22;3311;48.32423000;14.29074500;2024-03-08T09:37:06;13.40;52.20
6556;DHT22;3311;48.32423000;14.29074500;2024-03-08T09:39:34;13.40;51.70
6556;DHT22;3311;48.32423000;14.29074500;2024-03-08T09:42:02;13.50;51.60
6556;DHT22;3311;48.32423000;14.29074500;2024-03-08T09:44:29;13.40;51.30
6556;DHT22;3311;48.32423000;14.29074500;2024-03-08T09:46:58;13.30;51.40
6556;DHT22;3311;48.32423000;14.29074500;2024-03-08T09:49:28;13.30;51.20
6556;DHT22;3311;48.32423000;14.29074500;2024-03-08T09:51:55;13.20;51.20
6556;DHT22;3311;48.32423000;14.29074500;2024-03-08T09:54:23;13.30;51.30
6556;DHT22;3311;48.32423000;14.29074500;2024-03-08T09:56:52;13.40;51.40
6556;DHT22;3311;48.32423000;14.29074500;2024-03-08T09:59:19;13.40;51.10
6556;DHT22;3311;48.32423000;14.29074500;2024-03-08T10:02:13;13.30;50.40
6556;DHT22;3311;48.32423000;14.29074500;2024-03-08T10:04:42;13.20;50.70
6556;DHT22;3311;48.32423000;14.29074500;2024-03-08T10:07:12;13.20;50.10
6556;DHT22;3311;48.32423000;14.29074500;2024-03-08T10:09:39;13.10;51.40
6556;DHT22;3311;48.32423000;14.29074500;2024-03-08T10:12:08;13.10;50.40
6556;DHT22;3311;48.32423000;14.29074500;2024-03-08T10:14:40;13.20;50.50
6556;DHT22;3311;48.32423000;14.29074500;2024-03-08T10:17:09;13.30;50.40
6556;DHT22;3311;48.32423000;14.29074500;2024-03-08T10:19:37;13.30;50.10
6556;DHT22;3311;48.32423000;14.29074500;2024-03-08T10:22:05;13.30;49.90
6556;DHT22;3311;48.32423000;14.29074500;2024-03-08T10:24:32;13.30;49.70
6556;DHT22;3311;48.32423000;14.29074500;2024-03-08T10:27:00;13.00;49.50
6556;DHT22;3311;48.32423000;14.29074500;2024-03-08T10:29:31;13.10;49.90
6556;DHT22;3311;48.32423000;14.29074500;2024-03-08T10:31:58;13.10;49.80
6556;DHT22;3311;48.32423000;14.29074500;2024-03-08T10:34:27;13.10;49.40
6556;DHT22;3311;48.32423000;14.29074500;2024-03-08T10:36:59;13.10;49.30
6556;DHT22;3311;48.32423000;14.29074500;2024-03-08T10:39:34;13.00;49.30
6556;DHT22;3311;48.32423000;14.29074500;2024-03-08T10:42:04;13.10;49.10
6556;DHT22;3311;48.32423000;14.29074500;2024-03-08T10:44:48;13.10;48.90
6556;DHT22;3311;48.32423000;14.29074500;2024-03-08T10:47:19;13.00;49.20
6556;DHT22;3311;48.32423000;14.29074500;2024-03-08T10:49:55;13.10;49.00
6556;DHT22;3311;48.32423000;14.29074500;2024-03-08T10:52:24;13.10;48.70
6556;DHT22;3311;48.32423000;14.29074500;2024-03-08T10:54:52;13.00;48.90
6556;DHT22;3311;48.32423000;14.29074500;2024-03-08T10:57:22;13.10;49.00
6556;DHT22;3311;48.32423000;14.29074500;2024-03-08T10:59:51;13.10;49.10
6556;DHT22;3311;48.32423000;14.29074500;2024-03-08T11:02:19;13.10;48.90
6556;DHT22;3311;48.32423000;14.29074500;2024-03-08T11:04:47;13.10;49.00
6556;DHT22;3311;48.32423000;14.29074500;2024-03-08T11:07:17;13.10;49.20
6556;DHT22;3311;48.32423000;14.29074500;2024-03-08T11:09:47;13.10;48.60
6556;DHT22;3311;48.32423000;14.29074500;2024-03-08T11:12:25;13.10;49.20
6556;DHT22;3311;48.32423000;14.29074500;2024-03-08T11:14:55;13.10;48.40
6556;DHT22;3311;48.32423000;14.29074500;2024-03-08T11:17:44;13.00;48.30
6556;DHT22;3311;48.32423000;14.29074500;2024-03-08T11:20:13;13.00;49.00
6556;DHT22;3311;48.32423000;14.29074500;2024-03-08T11:22:50;13.00;48.60
6556;DHT22;3311;48.32423000;14.29074500;2024-03-08T11:25:36;13.00;48.50
6556;DHT22;3311;48.32423000;14.29074500;2024-03-08T11:28:11;13.00;48.80
6556;DHT22;3311;48.32423000;14.29074500;2024-03-08T11:30:43;13.00;48.90
6556;DHT22;3311;48.32423000;14.29074500;2024-03-08T11:33:15;13.10;48.80
6556;DHT22;3311;48.32423000;14.29074500;2024-03-08T11:35:42;13.00;49.10
6556;DHT22;3311;48.32423000;14.29074500;2024-03-08T11:38:13;13.00;48.90
6556;DHT22;3311;48.32423000;14.29074500;2024-03-08T11:40:42;13.10;49.00
6556;DHT22;3311;48.32423000;14.29074500;2024-03-08T11:43:09;13.10;48.90
6556;DHT22;3311;48.32423000;14.29074500;2024-03-08T11:45:37;13.10;49.10
6556;DHT22;3311;48.32423000;14.29074500;2024-03-08T11:48:07;13.10;49.00
6556;DHT22;3311;48.32423000;14.29074500;2024-03-08T11:50:34;13.10;49.10
6556;DHT22;3311;48.32423000;14.29074500;2024-03-08T11:53:02;13.10;48.70
6556;DHT22;3311;48.32423000;14.29074500;2024-03-08T11:55:31;13.00;48.60
6556;DHT22;3311;48.32423000;14.29074500;2024-03-08T11:58:02;13.00;49.20
6556;DHT22;3311;48.32423000;14.29074500;2024-03-08T12:00:30;13.10;49.20
6556;DHT22;3311;48.32423000;14.29074500;2024-03-08T12:03:07;13.00;48.90
6556;DHT22;3311;48.32423000;14.29074500;2024-03-08T12:05:36;13.00;49.10
6556;DHT22;3311;48.32423000;14.29074500;2024-03-08T12:08:05;13.00;49.30
6556;DHT22;3311;48.32423000;14.29074500;2024-03-08T12:10:34;13.10;49.00
6556;DHT22;3311;48.32423000;14.29074500;2024-03-08T12:13:02;13.00;49.00
6556;DHT22;3311;48.32423000;14.29074500;2024-03-08T12:15:30;13.10;49.10
6556;DHT22;3311;48.32423000;14.29074500;2024-03-08T12:18:00;13.10;49.00
6556;DHT22;3311;48.32423000;14.29074500;2024-03-08T12:20:28;13.10;49.00
6556;DHT22;3311;48.32423000;14.29074500;2024-03-08T12:22:57;13.00;48.90
6556;DHT22;3311;48.32423000;14.29074500;2024-03-08T12:25:26;13.00;49.00
6556;DHT22;3311;48.32423000;14.29074500;2024-03-08T12:28:07;13.00;49.00
6556;DHT22;3311;48.32423000;14.29074500;2024-03-08T12:30:45;13.00;49.00
6556;DHT22;3311;48.32423000;14.29074500;2024-03-08T12:33:13;13.00;49.10
6556;DHT22;3311;48.32423000;14.29074500;2024-03-08T12:35:40;13.00;49.10
6556;DHT22;3311;48.32423000;14.29074500;2024-03-08T12:38:08;13.10;49.20
6556;DHT22;3311;48.32423000;14.29074500;2024-03-08T12:40:36;13.00;48.80
6556;DHT22;3311;48.32423000;14.29074500;2024-03-08T12:43:09;13.00;48.90
6556;DHT22;3311;48.32423000;14.29074500;2024-03-08T12:45:37;13.00;48.80
6556;DHT22;3311;48.32423000;14.29074500;2024-03-08T12:48:12;13.00;48.80
6556;DHT22;3311;48.32423000;14.29074500;2024-03-08T12:50:41;13.00;48.80
6556;DHT22;3311;48.32423000;14.29074500;2024-03-08T12:53:11;13.10;49.70
6556;DHT22;3311;48.32423000;14.29074500;2024-03-08T12:55:39;13.10;49.00
6556;DHT22;3311;48.32423000;14.29074500;2024-03-08T12:58:08;13.00;48.70
6556;DHT22;3311;48.32423000;14.29074500;2024-03-08T13:00:37;13.00;48.70
6556;DHT22;3311;48.32423000;14.29074500;2024-03-08T13:03:12;12.90;48.60
6556;DHT22;3311;48.32423000;14.29074500;2024-03-08T13:05:39;12.90;48.60
6556;DHT22;3311;48.32423000;14.29074500;2024-03-08T13:08:08;13.00;49.10
6556;DHT22;3311;48.32423000;14.29074500;2024-03-08T13:10:39;13.00;49.10
6556;DHT22;3311;48.32423000;14.29074500;2024-03-08T13:13:11;13.00;49.00
6556;DHT22;3311;48.32423000;14.29074500;2024-03-08T13:15:40;13.00;48.70
6556;DHT22;3311;48.32423000;14.29074500;2024-03-08T13:18:08;13.00;48.90
6556;DHT22;3311;48.32423000;14.29074500;2024-03-08T13:20:36;13.00;49.00
6556;DHT22;3311;48.32423000;14.29074500;2024-03-08T13:23:04;13.00;48.40
6556;DHT22;3311;48.32423000;14.29074500;2024-03-08T13:25:32;13.00;48.90
6556;DHT22;3311;48.32423000;14.29074500;2024-03-08T13:27:59;13.00;48.80
6556;DHT22;3311;48.32423000;14.29074500;2024-03-08T13:30:28;13.00;49.10
6556;DHT22;3311;48.32423000;14.29074500;2024-03-08T13:32:56;13.10;49.00
6556;DHT22;3311;48.32423000;14.29074500;2024-03-08T13:35:23;13.10;48.70
6556;DHT22;3311;48.32423000;14.29074500;2024-03-08T13:37:53;13.10;49.00
6556;DHT22;3311;48.32423000;14.29074500;2024-03-08T13:40:20;13.10;49.00
6556;DHT22;3311;48.32423000;14.29074500;2024-03-08T13:42:48;13.10;48.70
6556;DHT22;3311;48.32423000;14.29074500;2024-03-08T13:45:16;13.00;48.90